sensor_id;sensor_type;location;lat;lon;timestamp;temperature;humidity
23271;DHT22;11804;51.118;17.058;2023-11-21T00:00:07;8.60;99.90
23271;DHT22;11804;51.118;17.058;2023-11-21T00:02:36;8.60;99.90
23271;DHT22;11804;51.118;17.058;2023-11-21T00:05:11;8.50;99.90
23271;DHT22;11804;51.118;17.058;2023-11-21T00:07:39;8.50;99.90
23271;DHT22;11804;51.118;17.058;2023-11-21T00:10:07;8.50;99.90
23271;DHT22;11804;51.118;17.058;2023-11-21T00:12:35;8.50;99.90
23271;DHT22;11804;51.118;17.058;2023-11-21T00:15:04;8.50;99.90
23271;DHT22;11804;51.118;17.058;2023-11-21T00:17:40;8.50;99.90
23271;DHT22;11804;51.118;17.058;2023-11-21T00:20:09;8.50;99.90
23271;DHT22;11804;51.118;17.058;2023-11-21T00:22:38;8.50;99.90
23271;DHT22;11804;51.118;17.058;2023-11-21T00:25:07;8.50;99.90
23271;DHT22;11804;51.118;17.058;2023-11-21T00:27:38;8.50;99.90
23271;DHT22;11804;51.118;17.058;2023-11-21T00:30:06;8.50;99.90
23271;DHT22;11804;51.118;17.058;2023-11-21T00:32:38;8.50;99.90
23271;DHT22;11804;51.118;17.058;2023-11-21T00:35:06;8.40;99.90
23271;DHT22;11804;51.118;17.058;2023-11-21T00:37:34;8.50;99.90
23271;DHT22;11804;51.118;17.058;2023-11-21T00:40:02;8.50;99.90
23271;DHT22;11804;51.118;17.058;2023-11-21T00:42:33;8.50;99.90
23271;DHT22;11804;51.118;17.058;2023-11-21T00:45:00;8.40;99.90
23271;DHT22;11804;51.118;17.058;2023-11-21T00:47:28;8.40;99.90
23271;DHT22;11804;51.118;17.058;2023-11-21T00:49:55;8.40;99.90
23271;DHT22;11804;51.118;17.058;2023-11-21T00:52:23;8.40;99.90
23271;DHT22;11804;51.118;17.058;2023-11-21T00:54:50;8.40;99.90
23271;DHT22;11804;51.118;17.058;2023-11-21T00:57:18;8.40;99.90
23271;DHT22;11804;51.118;17.058;2023-11-21T00:59:46;8.40;99.90
23271;DHT22;11804;51.118;17.058;2023-11-21T01:02:13;8.40;99.90
23271;DHT22;11804;51.118;17.058;2023-11-21T01:04:42;8.40;99.90
23271;DHT22;11804;51.118;17.058;2023-11-21T01:07:10;8.40;99.90
23271;DHT22;11804;51.118;17.058;2023-11-21T01:09:38;8.40;99.90
23271;DHT22;11804;51.118;17.058;2023-11-21T01:12:05;8.40;99.90
23271;DHT22;11804;51.118;17.058;2023-11-21T01:14:33;8.30;99.90
23271;DHT22;11804;51.118;17.058;2023-11-21T01:17:02;8.40;99.90
23271;DHT22;11804;51.118;17.058;2023-11-21T01:19:31;8.40;99.90
23271;DHT22;11804;51.118;17.058;2023-11-21T01:21:58;8.40;99.90
23271;DHT22;11804;51.118;17.058;2023-11-21T01:24:26;8.40;99.90
23271;DHT22;11804;51.118;17.058;2023-11-21T01:26:53;8.40;99.90
23271;DHT22;11804;51.118;17.058;2023-11-21T01:29:21;8.40;99.90
23271;DHT22;11804;51.118;17.058;2023-11-21T01:31:48;8.40;99.90
23271;DHT22;11804;51.118;17.058;2023-11-21T01:34:16;8.40;99.90
23271;DHT22;11804;51.118;17.058;2023-11-21T01:36:45;8.40;99.90
23271;DHT22;11804;51.118;17.058;2023-11-21T01:39:13;8.40;99.90
23271;DHT22;11804;51.118;17.058;2023-11-21T01:41:42;8.30;99.90
23271;DHT22;11804;51.118;17.058;2023-11-21T01:44:12;8.30;99.90
23271;DHT22;11804;51.118;17.058;2023-11-21T01:46:40;8.30;99.90
23271;DHT22;11804;51.118;17.058;2023-11-21T01:49:09;8.30;99.90
23271;DHT22;11804;51.118;17.058;2023-11-21T01:51:40;8.30;99.90
23271;DHT22;11804;51.118;17.058;2023-11-21T01:54:08;8.30;99.90
23271;DHT22;11804;51.118;17.058;2023-11-21T01:56:36;8.30;99.90
23271;DHT22;11804;51.118;17.058;2023-11-21T01:59:05;8.30;99.90
23271;DHT22;11804;51.118;17.058;2023-11-21T02:01:34;8.30;99.90
23271;DHT22;11804;51.118;17.058;2023-11-21T02:04:02;8.30;99.90
23271;DHT22;11804;51.118;17.058;2023-11-21T02:06:32;8.30;99.90
23271;DHT22;11804;51.118;17.058;2023-11-21T02:09:00;8.30;99.90
23271;DHT22;11804;51.118;17.058;2023-11-21T02:11:28;8.30;99.90
23271;DHT22;11804;51.118;17.058;2023-11-21T02:13:57;8.30;99.90
23271;DHT22;11804;51.118;17.058;2023-11-21T02:16:25;8.30;99.90
23271;DHT22;11804;51.118;17.058;2023-11-21T02:18:53;8.30;99.90
23271;DHT22;11804;51.118;17.058;2023-11-21T02:21:21;8.20;99.90
23271;DHT22;11804;51.118;17.058;2023-11-21T02:23:48;8.30;99.90
23271;DHT22;11804;51.118;17.058;2023-11-21T02:26:17;8.30;99.90
23271;DHT22;11804;51.118;17.058;2023-11-21T02:28:46;8.30;99.90
23271;DHT22;11804;51.118;17.058;2023-11-21T02:31:14;8.30;99.90
23271;DHT22;11804;51.118;17.058;2023-11-21T02:33:42;8.20;99.90
23271;DHT22;11804;51.118;17.058;2023-11-21T02:36:10;8.20;99.90
23271;DHT22;11804;51.118;17.058;2023-11-21T02:38:38;8.20;99.90
23271;DHT22;11804;51.118;17.058;2023-11-21T02:41:05;8.20;99.90
23271;DHT22;11804;51.118;17.058;2023-11-21T02:43:33;8.20;99.90
23271;DHT22;11804;51.118;17.058;2023-11-21T02:46:00;8.30;99.90
23271;DHT22;11804;51.118;17.058;2023-11-21T02:48:28;8.30;99.90
23271;DHT22;11804;51.118;17.058;2023-11-21T02:50:57;8.20;99.90
23271;DHT22;11804;51.118;17.058;2023-11-21T02:53:25;8.30;99.90
23271;DHT22;11804;51.118;17.058;2023-11-21T02:55:52;8.20;99.90
23271;DHT22;11804;51.118;17.058;2023-11-21T02:58:19;8.30;99.90
23271;DHT22;11804;51.118;17.058;2023-11-21T03:00:47;8.30;99.90
23271;DHT22;11804;51.118;17.058;2023-11-21T03:03:15;8.30;99.90
23271;DHT22;11804;51.118;17.058;2023-11-21T03:05:43;8.30;99.90
23271;DHT22;11804;51.118;17.058;2023-11-21T03:08:11;8.30;99.90
23271;DHT22;11804;51.118;17.058;2023-11-21T03:10:38;8.30;99.90
23271;DHT22;11804;51.118;17.058;2023-11-21T03:13:06;8.20;99.90
23271;DHT22;11804;51.118;17.058;2023-11-21T03:15:33;8.30;99.90
23271;DHT22;11804;51.118;17.058;2023-11-21T03:18:01;8.30;99.90
23271;DHT22;11804;51.118;17.058;2023-11-21T03:20:31;8.30;99.90
23271;DHT22;11804;51.118;17.058;2023-11-21T03:22:58;8.20;99.90
23271;DHT22;11804;51.118;17.058;2023-11-21T03:25:26;8.20;99.90
23271;DHT22;11804;51.118;17.058;2023-11-21T03:27:54;8.30;99.90
23271;DHT22;11804;51.118;17.058;2023-11-21T03:30:21;8.30;99.90
23271;DHT22;11804;51.118;17.058;2023-11-21T03:32:49;8.30;99.90
23271;DHT22;11804;51.118;17.058;2023-11-21T03:35:16;8.30;99.90
23271;DHT22;11804;51.118;17.058;2023-11-21T03:37:45;8.30;99.90
23271;DHT22;11804;51.118;17.058;2023-11-21T03:40:13;8.30;99.90
23271;DHT22;11804;51.118;17.058;2023-11-21T03:42:41;8.30;99.90
23271;DHT22;11804;51.118;17.058;2023-11-21T03:45:09;8.30;99.90
23271;DHT22;11804;51.118;17.058;2023-11-21T03:47:38;8.30;99.90
23271;DHT22;11804;51.118;17.058;2023-11-21T03:50:06;8.30;99.90
23271;DHT22;11804;51.118;17.058;2023-11-21T03:52:35;8.30;99.90
23271;DHT22;11804;51.118;17.058;2023-11-21T03:55:03;8.30;99.90
23271;DHT22;11804;51.118;17.058;2023-11-21T03:57:30;8.30;99.90
23271;DHT22;11804;51.118;17.058;2023-11-21T03:59:58;8.30;99.90
23271;DHT22;11804;51.118;17.058;2023-11-21T04:02:26;8.30;99.90
23271;DHT22;11804;51.118;17.058;2023-11-21T04:04:54;8.30;99.90
23271;DHT22;11804;51.118;17.058;2023-11-21T04:07:23;8.20;99.90
23271;DHT22;11804;51.118;17.058;2023-11-21T04:09:50;8.30;99.90
23271;DHT22;11804;51.118;17.058;2023-11-21T04:12:18;8.30;99.90
23271;DHT22;11804;51.118;17.058;2023-11-21T04:14:45;8.30;99.90
23271;DHT22;11804;51.118;17.058;2023-11-21T04:17:13;8.30;99.90
23271;DHT22;11804;51.118;17.058;2023-11-21T04:19:41;8.20;99.90
23271;DHT22;11804;51.118;17.058;2023-11-21T04:22:08;8.30;99.90
23271;DHT22;11804;51.118;17.058;2023-11-21T04:24:36;8.30;99.90
23271;DHT22;11804;51.118;17.058;2023-11-21T04:27:03;8.20;99.90
23271;DHT22;11804;51.118;17.058;2023-11-21T04:29:31;8.30;99.90
23271;DHT22;11804;51.118;17.058;2023-11-21T04:31:58;8.30;99.90
23271;DHT22;11804;51.118;17.058;2023-11-21T04:34:26;8.20;99.90
23271;DHT22;11804;51.118;17.058;2023-11-21T04:36:53;8.30;99.90
23271;DHT22;11804;51.118;17.058;2023-11-21T04:39:21;8.20;99.90
23271;DHT22;11804;51.118;17.058;2023-11-21T04:41:49;8.20;99.90
23271;DHT22;11804;51.118;17.058;2023-11-21T04:44:17;8.20;99.90
23271;DHT22;11804;51.118;17.058;2023-11-21T04:46:44;8.20;99.90
23271;DHT22;11804;51.118;17.058;2023-11-21T04:49:12;8.20;99.90
23271;DHT22;11804;51.118;17.058;2023-11-21T04:51:39;8.20;99.90
23271;DHT22;11804;51.118;17.058;2023-11-21T04:54:07;8.20;99.90
23271;DHT22;11804;51.118;17.058;2023-11-21T04:56:35;8.10;99.90
23271;DHT22;11804;51.118;17.058;2023-11-21T04:59:03;8.10;99.90
23271;DHT22;11804;51.118;17.058;2023-11-21T05:01:31;8.10;99.90
23271;DHT22;11804;51.118;17.058;2023-11-21T05:03:59;8.10;99.90
23271;DHT22;11804;51.118;17.058;2023-11-21T05:06:27;8.10;99.90
23271;DHT22;11804;51.118;17.058;2023-11-21T05:08:54;8.10;99.90
23271;DHT22;11804;51.118;17.058;2023-11-21T05:11:30;8.10;99.90
23271;DHT22;11804;51.118;17.058;2023-11-21T05:13:55;8.10;99.90
23271;DHT22;11804;51.118;17.058;2023-11-21T05:16:26;8.20;99.90
23271;DHT22;11804;51.118;17.058;2023-11-21T05:18:56;8.20;99.90
23271;DHT22;11804;51.118;17.058;2023-11-21T05:21:28;8.10;99.90
23271;DHT22;11804;51.118;17.058;2023-11-21T05:23:59;8.20;99.90
23271;DHT22;11804;51.118;17.058;2023-11-21T05:26:27;8.20;99.90
23271;DHT22;11804;51.118;17.058;2023-11-21T05:28:55;8.20;99.90
23271;DHT22;11804;51.118;17.058;2023-11-21T05:31:23;8.10;99.90
23271;DHT22;11804;51.118;17.058;2023-11-21T05:33:50;8.10;99.90
23271;DHT22;11804;51.118;17.058;2023-11-21T05:36:18;8.10;99.90
23271;DHT22;11804;51.118;17.058;2023-11-21T05:38:45;8.20;99.90
23271;DHT22;11804;51.118;17.058;2023-11-21T05:41:15;8.20;99.90
23271;DHT22;11804;51.118;17.058;2023-11-21T05:43:43;8.10;99.90
23271;DHT22;11804;51.118;17.058;2023-11-21T05:46:11;8.10;99.90
23271;DHT22;11804;51.118;17.058;2023-11-21T05:48:39;8.10;99.90
23271;DHT22;11804;51.118;17.058;2023-11-21T05:51:07;8.10;99.90
23271;DHT22;11804;51.118;17.058;2023-11-21T05:53:35;8.10;99.90
23271;DHT22;11804;51.118;17.058;2023-11-21T05:56:03;8.10;99.90
23271;DHT22;11804;51.118;17.058;2023-11-21T05:58:30;8.10;99.90
23271;DHT22;11804;51.118;17.058;2023-11-21T06:00:58;8.10;99.90
23271;DHT22;11804;51.118;17.058;2023-11-21T06:03:25;8.10;99.90
23271;DHT22;11804;51.118;17.058;2023-11-21T06:05:53;8.00;99.90
23271;DHT22;11804;51.118;17.058;2023-11-21T06:08:21;8.00;99.90
23271;DHT22;11804;51.118;17.058;2023-11-21T06:10:48;8.10;99.90
23271;DHT22;11804;51.118;17.058;2023-11-21T06:13:16;8.10;99.90
23271;DHT22;11804;51.118;17.058;2023-11-21T06:15:45;8.00;99.90
23271;DHT22;11804;51.118;17.058;2023-11-21T06:18:13;8.10;99.90
23271;DHT22;11804;51.118;17.058;2023-11-21T06:20:40;8.10;99.90
23271;DHT22;11804;51.118;17.058;2023-11-21T06:23:08;8.10;99.90
23271;DHT22;11804;51.118;17.058;2023-11-21T06:25:36;8.10;99.90
23271;DHT22;11804;51.118;17.058;2023-11-21T06:28:04;8.10;99.90
23271;DHT22;11804;51.118;17.058;2023-11-21T06:30:31;8.10;99.90
23271;DHT22;11804;51.118;17.058;2023-11-21T06:32:59;8.10;99.90
23271;DHT22;11804;51.118;17.058;2023-11-21T06:35:27;8.10;99.90
23271;DHT22;11804;51.118;17.058;2023-11-21T06:37:56;8.10;99.90
23271;DHT22;11804;51.118;17.058;2023-11-21T06:40:24;8.10;99.90
23271;DHT22;11804;51.118;17.058;2023-11-21T06:42:51;8.10;99.90
23271;DHT22;11804;51.118;17.058;2023-11-21T06:45:19;8.10;99.90
23271;DHT22;11804;51.118;17.058;2023-11-21T06:47:48;8.10;99.90
23271;DHT22;11804;51.118;17.058;2023-11-21T06:50:15;8.10;99.90
23271;DHT22;11804;51.118;17.058;2023-11-21T06:52:43;8.20;99.90
23271;DHT22;11804;51.118;17.058;2023-11-21T06:55:10;8.10;99.90
23271;DHT22;11804;51.118;17.058;2023-11-21T06:57:38;8.10;99.90
23271;DHT22;11804;51.118;17.058;2023-11-21T07:00:07;8.10;99.90
23271;DHT22;11804;51.118;17.058;2023-11-21T07:02:35;8.10;99.90
23271;DHT22;11804;51.118;17.058;2023-11-21T07:05:03;8.10;99.90
23271;DHT22;11804;51.118;17.058;2023-11-21T07:07:32;8.20;99.90
23271;DHT22;11804;51.118;17.058;2023-11-21T07:10:01;8.10;99.90
23271;DHT22;11804;51.118;17.058;2023-11-21T07:12:30;8.10;99.90
23271;DHT22;11804;51.118;17.058;2023-11-21T07:14:58;8.10;99.90
23271;DHT22;11804;51.118;17.058;2023-11-21T07:17:26;8.20;99.90
23271;DHT22;11804;51.118;17.058;2023-11-21T07:19:53;8.20;99.90
23271;DHT22;11804;51.118;17.058;2023-11-21T07:22:21;8.20;99.90
23271;DHT22;11804;51.118;17.058;2023-11-21T07:24:49;8.20;99.90
23271;DHT22;11804;51.118;17.058;2023-11-21T07:27:20;8.20;99.90
23271;DHT22;11804;51.118;17.058;2023-11-21T07:29:47;8.20;99.90
23271;DHT22;11804;51.118;17.058;2023-11-21T07:32:15;8.20;99.90
23271;DHT22;11804;51.118;17.058;2023-11-21T07:34:42;8.20;99.90
23271;DHT22;11804;51.118;17.058;2023-11-21T07:37:10;8.20;99.90
23271;DHT22;11804;51.118;17.058;2023-11-21T07:39:37;8.20;99.90
23271;DHT22;11804;51.118;17.058;2023-11-21T07:42:07;8.20;99.90
23271;DHT22;11804;51.118;17.058;2023-11-21T07:44:34;8.20;99.90
23271;DHT22;11804;51.118;17.058;2023-11-21T07:47:02;8.20;99.90
23271;DHT22;11804;51.118;17.058;2023-11-21T07:49:31;8.20;99.90
23271;DHT22;11804;51.118;17.058;2023-11-21T07:51:58;8.30;99.90
23271;DHT22;11804;51.118;17.058;2023-11-21T07:54:26;8.20;99.90
23271;DHT22;11804;51.118;17.058;2023-11-21T07:56:54;8.20;99.90
23271;DHT22;11804;51.118;17.058;2023-11-21T07:59:22;8.20;99.90
23271;DHT22;11804;51.118;17.058;2023-11-21T08:01:49;8.20;99.90
23271;DHT22;11804;51.118;17.058;2023-11-21T08:04:16;8.30;99.90
23271;DHT22;11804;51.118;17.058;2023-11-21T08:06:45;8.30;99.90
23271;DHT22;11804;51.118;17.058;2023-11-21T08:09:12;8.30;99.90
23271;DHT22;11804;51.118;17.058;2023-11-21T08:11:40;8.30;99.90
23271;DHT22;11804;51.118;17.058;2023-11-21T08:14:07;8.40;99.90
23271;DHT22;11804;51.118;17.058;2023-11-21T08:16:35;8.30;99.90
23271;DHT22;11804;51.118;17.058;2023-11-21T08:19:02;8.40;99.90
23271;DHT22;11804;51.118;17.058;2023-11-21T08:21:30;8.40;99.90
23271;DHT22;11804;51.118;17.058;2023-11-21T08:24:00;8.40;99.90
23271;DHT22;11804;51.118;17.058;2023-11-21T08:26:27;8.40;99.90
23271;DHT22;11804;51.118;17.058;2023-11-21T08:28:54;8.40;99.90
23271;DHT22;11804;51.118;17.058;2023-11-21T08:31:26;8.50;99.90
23271;DHT22;11804;51.118;17.058;2023-11-21T08:33:54;8.50;99.90
23271;DHT22;11804;51.118;17.058;2023-11-21T08:36:23;8.60;99.90
23271;DHT22;11804;51.118;17.058;2023-11-21T08:38:51;8.60;99.90
23271;DHT22;11804;51.118;17.058;2023-11-21T08:41:19;8.60;99.90
23271;DHT22;11804;51.118;17.058;2023-11-21T08:43:50;8.70;99.90
23271;DHT22;11804;51.118;17.058;2023-11-21T08:46:19;8.60;99.90
23271;DHT22;11804;51.118;17.058;2023-11-21T08:48:47;8.70;99.90
23271;DHT22;11804;51.118;17.058;2023-11-21T08:51:14;8.70;99.90
23271;DHT22;11804;51.118;17.058;2023-11-21T08:53:42;8.70;99.90
23271;DHT22;11804;51.118;17.058;2023-11-21T08:56:13;8.70;99.90
23271;DHT22;11804;51.118;17.058;2023-11-21T08:58:41;8.70;99.90
23271;DHT22;11804;51.118;17.058;2023-11-21T09:01:08;8.70;99.90
23271;DHT22;11804;51.118;17.058;2023-11-21T09:03:36;8.60;99.90
23271;DHT22;11804;51.118;17.058;2023-11-21T09:06:04;8.60;99.90
23271;DHT22;11804;51.118;17.058;2023-11-21T09:08:32;8.60;99.90
23271;DHT22;11804;51.118;17.058;2023-11-21T09:10:59;8.60;99.90
23271;DHT22;11804;51.118;17.058;2023-11-21T09:13:27;8.70;99.90
23271;DHT22;11804;51.118;17.058;2023-11-21T09:15:56;8.80;99.90
23271;DHT22;11804;51.118;17.058;2023-11-21T09:18:23;8.90;99.90
23271;DHT22;11804;51.118;17.058;2023-11-21T09:20:51;8.90;99.90
23271;DHT22;11804;51.118;17.058;2023-11-21T09:23:19;9.10;99.90
23271;DHT22;11804;51.118;17.058;2023-11-21T09:25:47;9.20;99.90
23271;DHT22;11804;51.118;17.058;2023-11-21T09:28:16;9.30;99.90
23271;DHT22;11804;51.118;17.058;2023-11-21T09:30:45;9.50;99.90
23271;DHT22;11804;51.118;17.058;2023-11-21T09:33:12;9.80;99.90
23271;DHT22;11804;51.118;17.058;2023-11-21T09:35:41;10.00;99.90
23271;DHT22;11804;51.118;17.058;2023-11-21T09:38:10;10.00;99.90
23271;DHT22;11804;51.118;17.058;2023-11-21T09:40:38;10.00;99.90
23271;DHT22;11804;51.118;17.058;2023-11-21T09:43:14;10.00;99.90
23271;DHT22;11804;51.118;17.058;2023-11-21T09:45:41;10.00;99.90
23271;DHT22;11804;51.118;17.058;2023-11-21T09:48:10;9.90;99.90
23271;DHT22;11804;51.118;17.058;2023-11-21T09:50:41;9.80;99.90
23271;DHT22;11804;51.118;17.058;2023-11-21T09:53:20;9.70;99.90
23271;DHT22;11804;51.118;17.058;2023-11-21T09:55:53;9.60;99.90
23271;DHT22;11804;51.118;17.058;2023-11-21T09:58:19;9.80;99.90
23271;DHT22;11804;51.118;17.058;2023-11-21T10:00:53;9.80;99.90
23271;DHT22;11804;51.118;17.058;2023-11-21T10:03:20;9.80;99.90
23271;DHT22;11804;51.118;17.058;2023-11-21T10:05:50;9.70;99.90
23271;DHT22;11804;51.118;17.058;2023-11-21T10:08:19;9.60;99.90
23271;DHT22;11804;51.118;17.058;2023-11-21T10:10:49;9.60;99.90
23271;DHT22;11804;51.118;17.058;2023-11-21T10:13:19;9.50;99.90
23271;DHT22;11804;51.118;17.058;2023-11-21T10:15:49;9.60;99.90
23271;DHT22;11804;51.118;17.058;2023-11-21T10:18:17;9.50;99.90
23271;DHT22;11804;51.118;17.058;2023-11-21T10:20:45;9.50;99.90
23271;DHT22;11804;51.118;17.058;2023-11-21T10:23:15;9.50;99.90
23271;DHT22;11804;51.118;17.058;2023-11-21T10:25:43;9.50;99.90
23271;DHT22;11804;51.118;17.058;2023-11-21T10:28:10;9.50;99.90
23271;DHT22;11804;51.118;17.058;2023-11-21T10:30:39;9.50;99.90
23271;DHT22;11804;51.118;17.058;2023-11-21T10:33:07;9.40;99.90
23271;DHT22;11804;51.118;17.058;2023-11-21T10:35:45;9.40;99.90
23271;DHT22;11804;51.118;17.058;2023-11-21T10:38:14;9.30;99.90
23271;DHT22;11804;51.118;17.058;2023-11-21T10:40:42;9.10;99.90
23271;DHT22;11804;51.118;17.058;2023-11-21T10:43:11;9.00;99.90
23271;DHT22;11804;51.118;17.058;2023-11-21T10:45:42;8.80;99.90
23271;DHT22;11804;51.118;17.058;2023-11-21T10:48:14;8.70;99.90
23271;DHT22;11804;51.118;17.058;2023-11-21T10:50:45;8.70;99.90
23271;DHT22;11804;51.118;17.058;2023-11-21T10:53:13;8.70;99.90
23271;DHT22;11804;51.118;17.058;2023-11-21T10:55:40;8.60;99.90
23271;DHT22;11804;51.118;17.058;2023-11-21T10:58:13;8.70;99.90
23271;DHT22;11804;51.118;17.058;2023-11-21T11:00:41;8.60;99.90
23271;DHT22;11804;51.118;17.058;2023-11-21T11:03:12;8.70;99.90
23271;DHT22;11804;51.118;17.058;2023-11-21T11:05:41;8.70;99.90
23271;DHT22;11804;51.118;17.058;2023-11-21T11:08:13;8.60;99.90
23271;DHT22;11804;51.118;17.058;2023-11-21T11:10:45;8.60;99.90
23271;DHT22;11804;51.118;17.058;2023-11-21T11:13:16;8.60;99.90
23271;DHT22;11804;51.118;17.058;2023-11-21T11:15:48;8.60;99.90
23271;DHT22;11804;51.118;17.058;2023-11-21T11:18:16;8.50;99.90
23271;DHT22;11804;51.118;17.058;2023-11-21T11:20:45;8.40;99.90
23271;DHT22;11804;51.118;17.058;2023-11-21T11:26:28;8.40;99.90
23271;DHT22;11804;51.118;17.058;2023-11-21T11:29:03;8.30;99.90
23271;DHT22;11804;51.118;17.058;2023-11-21T11:31:39;8.20;99.90
23271;DHT22;11804;51.118;17.058;2023-11-21T11:34:17;8.10;99.90
23271;DHT22;11804;51.118;17.058;2023-11-21T11:36:50;8.00;99.90
23271;DHT22;11804;51.118;17.058;2023-11-21T11:39:37;7.70;99.90
23271;DHT22;11804;51.118;17.058;2023-11-21T11:42:07;7.70;99.90
23271;DHT22;11804;51.118;17.058;2023-11-21T11:47:21;7.50;99.90
23271;DHT22;11804;51.118;17.058;2023-11-21T11:50:03;7.40;99.90
23271;DHT22;11804;51.118;17.058;2023-11-21T11:52:42;7.40;99.90
23271;DHT22;11804;51.118;17.058;2023-11-21T11:55:12;7.40;99.90
23271;DHT22;11804;51.118;17.058;2023-11-21T11:57:41;7.40;99.90
23271;DHT22;11804;51.118;17.058;2023-11-21T12:00:20;7.30;99.90
23271;DHT22;11804;51.118;17.058;2023-11-21T12:02:55;7.30;99.90
23271;DHT22;11804;51.118;17.058;2023-11-21T12:05:27;7.20;99.90
23271;DHT22;11804;51.118;17.058;2023-11-21T12:08:06;7.20;99.90
23271;DHT22;11804;51.118;17.058;2023-11-21T12:10:33;7.30;99.90
23271;DHT22;11804;51.118;17.058;2023-11-21T12:13:04;7.30;99.90
23271;DHT22;11804;51.118;17.058;2023-11-21T12:15:34;7.30;99.90
23271;DHT22;11804;51.118;17.058;2023-11-21T12:18:02;7.20;99.90
23271;DHT22;11804;51.118;17.058;2023-11-21T12:20:31;7.20;99.90
23271;DHT22;11804;51.118;17.058;2023-11-21T12:23:00;7.20;99.90
23271;DHT22;11804;51.118;17.058;2023-11-21T12:25:29;7.20;99.90
23271;DHT22;11804;51.118;17.058;2023-11-21T12:28:00;7.20;99.90
23271;DHT22;11804;51.118;17.058;2023-11-21T12:30:30;7.20;99.90
23271;DHT22;11804;51.118;17.058;2023-11-21T12:33:00;7.10;99.90
23271;DHT22;11804;51.118;17.058;2023-11-21T12:35:33;7.00;99.90
23271;DHT22;11804;51.118;17.058;2023-11-21T12:37:59;7.10;99.90
23271;DHT22;11804;51.118;17.058;2023-11-21T12:40:29;7.00;99.90
23271;DHT22;11804;51.118;17.058;2023-11-21T12:42:58;6.90;99.90
23271;DHT22;11804;51.118;17.058;2023-11-21T12:45:28;6.80;99.90
23271;DHT22;11804;51.118;17.058;2023-11-21T12:48:02;6.70;99.90
23271;DHT22;11804;51.118;17.058;2023-11-21T12:50:32;6.50;99.90
23271;DHT22;11804;51.118;17.058;2023-11-21T12:55:35;6.60;99.90
23271;DHT22;11804;51.118;17.058;2023-11-21T12:58:05;6.50;99.90
23271;DHT22;11804;51.118;17.058;2023-11-21T13:00:39;6.50;99.90
23271;DHT22;11804;51.118;17.058;2023-11-21T13:03:11;6.40;99.90
23271;DHT22;11804;51.118;17.058;2023-11-21T13:05:41;6.40;99.90
23271;DHT22;11804;51.118;17.058;2023-11-21T13:08:13;6.30;99.90
23271;DHT22;11804;51.118;17.058;2023-11-21T13:10:44;6.20;99.90
23271;DHT22;11804;51.118;17.058;2023-11-21T13:13:14;6.20;99.90
23271;DHT22;11804;51.118;17.058;2023-11-21T13:15:55;6.10;99.90
23271;DHT22;11804;51.118;17.058;2023-11-21T13:18:26;6.00;99.90
23271;DHT22;11804;51.118;17.058;2023-11-21T13:20:56;6.00;99.90
23271;DHT22;11804;51.118;17.058;2023-11-21T13:23:26;5.80;99.90
23271;DHT22;11804;51.118;17.058;2023-11-21T13:25:57;5.80;99.90
23271;DHT22;11804;51.118;17.058;2023-11-21T13:28:26;5.60;99.90
23271;DHT22;11804;51.118;17.058;2023-11-21T13:30:55;5.70;99.90
23271;DHT22;11804;51.118;17.058;2023-11-21T13:33:24;5.80;99.90
23271;DHT22;11804;51.118;17.058;2023-11-21T13:35:55;5.80;99.90
23271;DHT22;11804;51.118;17.058;2023-11-21T13:38:24;5.80;99.90
23271;DHT22;11804;51.118;17.058;2023-11-21T13:40:56;5.70;99.90
23271;DHT22;11804;51.118;17.058;2023-11-21T13:43:25;5.70;99.90
23271;DHT22;11804;51.118;17.058;2023-11-21T13:45:55;5.60;99.90
23271;DHT22;11804;51.118;17.058;2023-11-21T13:48:27;5.60;99.90
23271;DHT22;11804;51.118;17.058;2023-11-21T13:51:11;5.60;99.90
23271;DHT22;11804;51.118;17.058;2023-11-21T13:53:45;5.60;99.90
23271;DHT22;11804;51.118;17.058;2023-11-21T13:56:21;5.30;99.90
23271;DHT22;11804;51.118;17.058;2023-11-21T13:58:53;5.20;99.90
23271;DHT22;11804;51.118;17.058;2023-11-21T14:01:23;5.30;99.90
23271;DHT22;11804;51.118;17.058;2023-11-21T14:04:03;5.40;99.90
23271;DHT22;11804;51.118;17.058;2023-11-21T14:06:47;5.30;99.90
23271;DHT22;11804;51.118;17.058;2023-11-21T14:09:21;5.20;99.90
23271;DHT22;11804;51.118;17.058;2023-11-21T14:11:57;5.20;99.90
23271;DHT22;11804;51.118;17.058;2023-11-21T14:14:27;5.20;99.90
23271;DHT22;11804;51.118;17.058;2023-11-21T14:16:55;5.20;99.90
23271;DHT22;11804;51.118;17.058;2023-11-21T14:19:23;5.30;99.90
23271;DHT22;11804;51.118;17.058;2023-11-21T14:21:52;5.30;99.90
23271;DHT22;11804;51.118;17.058;2023-11-21T14:24:20;5.10;99.90
23271;DHT22;11804;51.118;17.058;2023-11-21T14:26:49;5.00;99.90
23271;DHT22;11804;51.118;17.058;2023-11-21T14:29:18;5.10;99.90
23271;DHT22;11804;51.118;17.058;2023-11-21T14:31:47;4.90;99.90
23271;DHT22;11804;51.118;17.058;2023-11-21T14:34:15;4.90;99.90
23271;DHT22;11804;51.118;17.058;2023-11-21T14:36:43;4.90;99.90
23271;DHT22;11804;51.118;17.058;2023-11-21T14:39:11;4.80;99.90
23271;DHT22;11804;51.118;17.058;2023-11-21T14:41:41;4.90;99.90
23271;DHT22;11804;51.118;17.058;2023-11-21T14:44:10;4.80;99.90
23271;DHT22;11804;51.118;17.058;2023-11-21T14:46:39;4.60;99.90
23271;DHT22;11804;51.118;17.058;2023-11-21T14:49:10;4.60;99.90
23271;DHT22;11804;51.118;17.058;2023-11-21T14:51:39;4.60;99.90
23271;DHT22;11804;51.118;17.058;2023-11-21T14:54:08;4.60;99.90
23271;DHT22;11804;51.118;17.058;2023-11-21T14:56:36;4.60;99.90
23271;DHT22;11804;51.118;17.058;2023-11-21T14:59:05;4.70;99.90
23271;DHT22;11804;51.118;17.058;2023-11-21T15:01:34;4.60;99.90
23271;DHT22;11804;51.118;17.058;2023-11-21T15:04:22;4.50;99.90
23271;DHT22;11804;51.118;17.058;2023-11-21T15:07:00;4.60;99.90
23271;DHT22;11804;51.118;17.058;2023-11-21T15:09:28;4.80;99.90
23271;DHT22;11804;51.118;17.058;2023-11-21T15:12:03;4.70;99.90
23271;DHT22;11804;51.118;17.058;2023-11-21T15:14:45;4.60;99.90
23271;DHT22;11804;51.118;17.058;2023-11-21T15:17:16;4.60;99.90
23271;DHT22;11804;51.118;17.058;2023-11-21T15:19:45;4.60;99.90
23271;DHT22;11804;51.118;17.058;2023-11-21T15:22:13;4.20;99.90
23271;DHT22;11804;51.118;17.058;2023-11-21T15:24:42;4.30;99.90
23271;DHT22;11804;51.118;17.058;2023-11-21T15:27:13;4.30;99.90
23271;DHT22;11804;51.118;17.058;2023-11-21T15:29:40;4.50;99.90
23271;DHT22;11804;51.118;17.058;2023-11-21T15:32:09;4.40;99.90
23271;DHT22;11804;51.118;17.058;2023-11-21T15:34:37;4.40;99.90
23271;DHT22;11804;51.118;17.058;2023-11-21T15:37:07;4.40;99.90
23271;DHT22;11804;51.118;17.058;2023-11-21T15:39:37;4.30;99.90
23271;DHT22;11804;51.118;17.058;2023-11-21T15:42:06;4.30;99.90
23271;DHT22;11804;51.118;17.058;2023-11-21T15:44:34;4.40;99.90
23271;DHT22;11804;51.118;17.058;2023-11-21T15:47:01;4.20;99.90
23271;DHT22;11804;51.118;17.058;2023-11-21T15:49:32;4.20;99.90